Time;durP1;ratioP1;P1;durP2;ratioP2;P2;SDS_P1;SDS_P2;PMS_P1;PMS_P2;Temp;Humidity;BMP_temperature;BMP_pressure;BME280_temperature;BME280_humidity;BME280_pressure;Samples;Min_cycle;Max_cycle;Signal;HPM_P1;HPM_P2
2023/07/30 00:01:29;;;;;;;3.65;1.40;;;;;;;25.63;54.93;99154.87;4486571;31;35464;-71
2023/07/30 00:03:57;;;;;;;2.62;1.35;;;;;;;25.64;55.08;99159.28;4485144;31;33570;-70
2023/07/30 00:06:24;;;;;;;2.72;1.25;;;;;;;25.67;54.61;99165.13;4488694;31;33451;-70
2023/07/30 00:08:52;;;;;;;8.50;2.22;;;;;;;25.67;54.73;99165.13;4476866;31;34495;-70
2023/07/30 00:11:20;;;;;;;2.30;1.30;;;;;;;25.58;54.35;99161.00;4495561;31;32380;-70
2023/07/30 00:13:47;;;;;;;4.05;1.70;;;;;;;25.66;54.10;99160.72;4485096;31;34844;-70
2023/07/30 00:16:15;;;;;;;2.70;1.48;;;;;;;25.69;54.15;99163.03;4478202;31;34226;-70
2023/07/30 00:18:43;;;;;;;3.15;1.60;;;;;;;25.71;53.65;99152.66;4480019;31;32592;-70
2023/07/30 00:21:10;;;;;;;2.80;1.27;;;;;;;25.81;53.45;99151.31;4483448;31;35354;-70
2023/07/30 00:23:38;;;;;;;3.67;1.50;;;;;;;25.60;53.33;99147.09;4497863;31;33985;-71
2023/07/30 00:26:05;;;;;;;3.28;1.55;;;;;;;25.79;52.79;99155.09;4481164;31;32945;-70
2023/07/30 00:28:33;;;;;;;3.20;1.50;;;;;;;25.53;53.34;99155.37;4485932;31;33430;-70
2023/07/30 00:31:01;;;;;;;3.25;1.25;;;;;;;25.03;53.60;99148.00;4492674;31;33784;-69
2023/07/30 00:33:28;;;;;;;3.08;1.42;;;;;;;24.87;53.35;99156.75;4490039;31;33121;-69
2023/07/30 00:35:56;;;;;;;3.08;1.65;;;;;;;24.22;54.91;99154.16;4497670;31;33331;-71
2023/07/30 00:38:23;;;;;;;1.85;1.08;;;;;;;24.44;54.77;99149.25;4488746;31;33863;-68
2023/07/30 00:40:51;;;;;;;2.45;1.48;;;;;;;24.69;53.78;99146.59;4484246;31;34695;-68
2023/07/30 00:43:19;;;;;;;3.78;1.62;;;;;;;25.02;53.16;99151.81;4499128;31;34625;-68
2023/07/30 00:45:46;;;;;;;3.20;1.30;;;;;;;24.89;53.72;99143.69;4498240;31;33159;-67
2023/07/30 00:48:15;;;;;;;3.42;1.40;;;;;;;24.64;54.34;99138.19;4494417;31;34031;-67
2023/07/30 00:50:43;;;;;;;3.37;1.48;;;;;;;24.58;54.41;99142.63;4497934;31;34949;-68
2023/07/30 00:53:11;;;;;;;5.10;1.50;;;;;;;24.72;53.96;99135.19;4498024;31;33381;-68
2023/07/30 00:55:39;;;;;;;2.45;1.33;;;;;;;24.96;53.50;99124.47;4491035;31;34048;-67
2023/07/30 00:58:07;;;;;;;3.40;1.98;;;;;;;24.62;54.52;99126.63;4479906;31;35341;-68
2023/07/30 01:00:35;;;;;;;4.82;1.77;;;;;;;24.40;55.09;99123.38;4494595;31;33911;-67
2023/07/30 01:03:04;;;;;;;3.12;1.40;;;;;;;23.87;56.51;99118.97;4485050;31;33827;-67
2023/07/30 01:05:31;;;;;;;3.75;1.58;;;;;;;24.37;55.08;99126.53;4473634;31;33457;-68
2023/07/30 01:07:59;;;;;;;3.50;1.80;;;;;;;23.94;56.66;99128.00;4490322;31;34472;-67
2023/07/30 01:10:30;;;;;;;4.90;1.98;;;;;;;23.84;56.73;99133.06;4470364;31;33708;-67
2023/07/30 01:13:00;;;;;;;3.62;1.52;;;;;;;24.23;55.72;99127.66;4486618;31;33906;-68
2023/07/30 01:15:29;;;;;;;3.17;1.52;;;;;;;24.38;55.06;99133.69;4489795;31;34084;-68
2023/07/30 01:17:56;;;;;;;2.72;1.50;;;;;;;24.05;56.13;99123.75;4471180;31;33492;-69
2023/07/30 01:20:24;;;;;;;3.30;1.48;;;;;;;24.34;55.53;99113.31;4480926;32;33942;-69
2023/07/30 01:22:52;;;;;;;2.40;1.10;;;;;;;24.69;54.55;99102.81;4479190;31;33599;-69
2023/07/30 01:25:21;;;;;;;2.15;1.25;;;;;;;25.10;53.33;99094.03;4497883;31;33385;-70
2023/07/30 01:27:52;;;;;;;2.95;1.33;;;;;;;24.91;53.79;99085.97;4481086;31;33541;-70
2023/07/30 01:30:27;;;;;;;3.35;1.60;;;;;;;25.32;52.85;99086.25;4489342;31;33781;-70
2023/07/30 01:32:55;;;;;;;3.20;1.25;;;;;;;25.18;53.08;99092.94;4489489;31;34487;-70
2023/07/30 01:35:27;;;;;;;3.33;1.67;;;;;;;25.23;53.03;99084.03;4483069;31;34202;-70
2023/07/30 01:37:55;;;;;;;3.55;1.70;;;;;;;25.36;52.40;99083.06;4475721;31;34158;-70
2023/07/30 01:40:23;;;;;;;2.72;1.37;;;;;;;25.56;52.05;99080.97;4466271;32;33834;-70
2023/07/30 01:42:51;;;;;;;2.40;1.27;;;;;;;25.66;51.79;99083.16;4467063;31;33568;-70
2023/07/30 01:45:18;;;;;;;2.15;1.35;;;;;;;25.53;52.41;99075.94;4492072;31;33192;-70
2023/07/30 01:47:46;;;;;;;2.80;1.23;;;;;;;25.51;52.04;99072.56;4490968;31;34012;-70
2023/07/30 01:50:14;;;;;;;2.00;1.20;;;;;;;25.45;52.09;99077.06;4498190;31;34770;-70
2023/07/30 01:52:41;;;;;;;3.95;1.67;;;;;;;25.38;51.85;99072.72;4489626;31;34947;-69
2023/07/30 01:55:09;;;;;;;3.00;1.35;;;;;;;25.56;51.31;99081.78;4498499;31;33497;-71
2023/07/30 01:57:37;;;;;;;3.60;1.37;;;;;;;25.52;51.51;99076.97;4480056;31;33653;-71
2023/07/30 02:00:05;;;;;;;4.75;1.83;;;;;;;25.40;51.53;99067.88;4479078;31;33880;-71
2023/07/30 02:02:35;;;;;;;3.08;1.45;;;;;;;25.40;51.45;99070.59;4482769;31;34615;-69
2023/07/30 02:05:03;;;;;;;3.55;1.73;;;;;;;25.19;51.49;99075.44;4485990;31;33006;-71
2023/07/30 02:07:31;;;;;;;2.05;1.27;;;;;;;25.40;50.97;99076.91;4488175;31;33759;-71
2023/07/30 02:09:58;;;;;;;1.37;0.95;;;;;;;25.17;51.35;99077.59;4490196;31;33845;-71
2023/07/30 02:12:26;;;;;;;3.75;1.30;;;;;;;25.31;50.86;99081.00;4496721;31;34857;-72
2023/07/30 02:14:54;;;;;;;5.65;1.60;;;;;;;25.33;50.71;99076.16;4483120;31;33154;-71
2023/07/30 02:17:21;;;;;;;4.47;1.55;;;;;;;25.36;50.48;99074.84;4482870;32;34258;-71
2023/07/30 02:19:49;;;;;;;4.53;1.15;;;;;;;25.38;50.28;99073.56;4468427;31;34717;-69
2023/07/30 02:22:16;;;;;;;2.90;1.52;;;;;;;25.42;50.22;99072.03;4484410;31;35707;-70
2023/07/30 02:24:44;;;;;;;3.15;1.48;;;;;;;25.45;50.13;99070.75;4488899;31;34331;-70
2023/07/30 02:27:12;;;;;;;3.03;1.42;;;;;;;25.40;50.26;99073.34;4482709;32;33870;-70
2023/07/30 02:29:39;;;;;;;1.73;1.05;;;;;;;25.43;50.24;99068.25;4475794;31;35096;-70
2023/07/30 02:32:07;;;;;;;3.35;1.42;;;;;;;25.50;50.16;99073.66;4491235;31;33562;-70
2023/07/30 02:34:35;;;;;;;2.58;1.37;;;;;;;25.49;49.83;99070.06;4492856;31;34348;-70
2023/07/30 02:37:02;;;;;;;3.85;1.33;;;;;;;25.44;49.88;99069.91;4486546;31;34263;-70
2023/07/30 02:39:30;;;;;;;3.15;1.40;;;;;;;25.49;49.78;99077.44;4489097;31;33819;-70
2023/07/30 02:41:58;;;;;;;3.70;1.20;;;;;;;25.62;49.43;99076.44;4467530;32;34869;-70
2023/07/30 02:44:25;;;;;;;2.37;1.30;;;;;;;25.70;49.38;99078.91;4472493;31;31400;-71
2023/07/30 02:46:53;;;;;;;3.45;1.50;;;;;;;25.78;49.37;99095.88;4482221;31;33910;-70
2023/07/30 02:49:21;;;;;;;7.28;1.75;;;;;;;25.85;49.33;99089.50;4486456;31;33876;-70
2023/07/30 02:51:48;;;;;;;2.92;1.33;;;;;;;25.87;49.57;99081.88;4493200;31;34824;-70
2023/07/30 02:54:16;;;;;;;2.47;1.23;;;;;;;25.88;49.60;99080.84;4491736;31;33031;-70
2023/07/30 02:56:44;;;;;;;2.75;1.15;;;;;;;25.85;49.64;99082.12;4482264;31;34714;-74
2023/07/30 02:59:11;;;;;;;2.92;1.15;;;;;;;25.61;50.30;99078.34;4485534;31;33964;-74
2023/07/30 03:01:39;;;;;;;2.65;1.10;;;;;;;25.76;49.93;99084.28;4492144;31;33672;-74
2023/07/30 03:04:07;;;;;;;6.55;1.60;;;;;;;25.78;49.93;99081.34;4490620;31;34074;-74
2023/07/30 03:06:35;;;;;;;5.12;1.62;;;;;;;25.71;50.12;99073.16;4480817;31;34770;-74
2023/07/30 03:09:02;;;;;;;3.28;1.33;;;;;;;25.71;50.20;99092.34;4490969;31;34040;-74
2023/07/30 03:11:30;;;;;;;9.77;1.77;;;;;;;25.66;50.30;99083.16;4490605;31;34547;-74
2023/07/30 03:13:57;;;;;;;2.10;1.02;;;;;;;25.62;50.48;99079.19;4486305;31;33067;-74
2023/07/30 03:16:25;;;;;;;3.60;1.37;;;;;;;25.62;50.65;99084.66;4479870;31;34993;-70
2023/07/30 03:18:53;;;;;;;2.53;1.25;;;;;;;25.37;51.04;99079.28;4486456;31;34172;-70
2023/07/30 03:21:20;;;;;;;8.00;1.58;;;;;;;25.48;50.76;99087.56;4497588;31;33773;-69
2023/07/30 03:23:48;;;;;;;2.40;1.33;;;;;;;25.29;51.22;99092.19;4493073;31;33968;-69
2023/07/30 03:26:16;;;;;;;2.55;1.25;;;;;;;25.29;51.34;99085.87;4482990;31;33532;-69
2023/07/30 03:28:43;;;;;;;3.25;1.25;;;;;;;25.37;50.99;99087.50;4481957;31;34046;-69
2023/07/30 03:31:11;;;;;;;4.57;2.00;;;;;;;25.39;50.79;99090.81;4483521;31;34711;-69
2023/07/30 03:33:43;;;;;;;2.35;1.48;;;;;;;25.36;50.99;99097.62;4483110;31;33115;-69
2023/07/30 03:36:11;;;;;;;2.62;1.30;;;;;;;25.27;51.25;99099.81;4478538;31;35394;-70
2023/07/30 03:38:39;;;;;;;2.67;1.58;;;;;;;25.34;51.16;99097.00;4497617;31;32265;-72
2023/07/30 03:41:07;;;;;;;2.97;1.33;;;;;;;25.36;51.13;99100.34;4487266;31;33733;-69
2023/07/30 03:43:34;;;;;;;2.53;1.40;;;;;;;25.40;50.96;99107.06;4494525;31;34352;-69
2023/07/30 03:46:02;;;;;;;4.90;1.35;;;;;;;25.35;50.91;99101.41;4484801;31;33701;-72
2023/07/30 03:48:30;;;;;;;2.40;1.20;;;;;;;25.40;50.71;99101.56;4482083;31;35224;-70
2023/07/30 03:50:58;;;;;;;3.17;1.42;;;;;;;25.45;50.45;99098.12;4498426;31;33571;-72
2023/07/30 03:53:26;;;;;;;4.68;1.65;;;;;;;25.51;50.33;99102.72;4490874;31;33880;-74
2023/07/30 03:55:53;;;;;;;2.60;1.37;;;;;;;25.51;50.84;99097.22;4480151;31;34005;-73
2023/07/30 03:58:21;;;;;;;2.83;1.40;;;;;;;25.42;51.01;99098.59;4481670;31;35030;-73
2023/07/30 04:00:49;;;;;;;3.70;1.58;;;;;;;25.36;51.08;99108.56;4491013;31;33237;-74
2023/07/30 04:03:17;;;;;;;6.30;1.65;;;;;;;25.35;51.23;99106.03;4481054;31;33158;-74
2023/07/30 04:05:44;;;;;;;3.05;1.65;;;;;;;25.46;51.11;99106.16;4475605;31;33705;-72
2023/07/30 04:08:12;;;;;;;3.37;1.62;;;;;;;25.33;51.42;99109.03;4496804;31;33736;-72
2023/07/30 04:10:40;;;;;;;2.67;1.20;;;;;;;25.22;51.69;99110.59;4489866;31;33806;-72
2023/07/30 04:13:07;;;;;;;3.47;1.30;;;;;;;25.40;51.15;99108.97;4500713;31;34365;-72
2023/07/30 04:15:35;;;;;;;3.25;1.50;;;;;;;25.42;51.04;99113.12;4491453;31;34391;-72
2023/07/30 04:18:03;;;;;;;2.62;1.02;;;;;;;25.25;51.52;99117.53;4484381;31;35013;-72
2023/07/30 04:20:31;;;;;;;2.75;1.58;;;;;;;25.52;50.71;99118.94;4482680;31;33782;-72
2023/07/30 04:22:59;;;;;;;3.20;1.35;;;;;;;25.65;50.38;99117.97;4485115;31;34138;-72
2023/07/30 04:25:27;;;;;;;5.00;1.37;;;;;;;25.68;50.18;99120.25;4496375;31;33724;-77
2023/07/30 04:27:54;;;;;;;4.32;1.85;;;;;;;25.73;50.19;99125.03;4496288;31;33909;-76
2023/07/30 04:30:22;;;;;;;4.05;1.65;;;;;;;25.70;50.27;99123.56;4488050;31;33587;-75
2023/07/30 04:32:50;;;;;;;3.50;1.70;;;;;;;25.78;49.58;99122.47;4488509;31;33175;-71
2023/07/30 04:35:17;;;;;;;3.55;1.55;;;;;;;25.74;49.74;99121.22;4475550;31;33629;-71
2023/07/30 04:37:45;;;;;;;2.95;1.55;;;;;;;25.85;49.84;99128.72;4488854;31;34728;-73
2023/07/30 04:40:13;;;;;;;1.87;1.30;;;;;;;25.90;49.57;99136.25;4489254;31;34889;-73
2023/07/30 04:42:40;;;;;;;4.05;1.90;;;;;;;25.93;49.43;99127.56;4482860;31;33369;-72
2023/07/30 04:45:09;;;;;;;3.47;1.75;;;;;;;26.02;49.07;99128.94;4477838;31;34526;-72
2023/07/30 04:47:38;;;;;;;4.20;1.62;;;;;;;25.92;49.19;99134.13;4485921;31;35189;-72
2023/07/30 04:50:06;;;;;;;4.12;1.77;;;;;;;26.00;49.51;99125.56;4485357;31;32483;-72
2023/07/30 04:52:34;;;;;;;3.25;1.55;;;;;;;25.99;49.53;99130.22;4491783;31;33095;-72
2023/07/30 04:55:01;;;;;;;3.47;1.30;;;;;;;25.96;49.96;99135.34;4480497;31;34701;-73
2023/07/30 04:57:29;;;;;;;5.62;1.98;;;;;;;25.59;50.77;99129.81;4470355;31;34220;-70
2023/07/30 04:59:57;;;;;;;3.72;1.60;;;;;;;25.82;50.32;99134.66;4493078;31;33449;-71
2023/07/30 05:02:24;;;;;;;3.45;1.65;;;;;;;25.99;49.61;99146.69;4473514;31;33323;-70
2023/07/30 05:04:52;;;;;;;3.08;1.30;;;;;;;26.09;49.09;99140.66;4477284;31;34724;-70
2023/07/30 05:07:20;;;;;;;2.42;1.42;;;;;;;26.16;49.34;99144.16;4496604;31;34205;-70
2023/07/30 05:09:47;;;;;;;4.15;1.58;;;;;;;26.23;49.30;99146.81;4476010;31;34429;-70
2023/07/30 05:12:15;;;;;;;3.62;1.50;;;;;;;26.27;49.14;99144.44;4476628;31;33000;-69
2023/07/30 05:14:42;;;;;;;2.53;1.60;;;;;;;26.20;49.39;99141.78;4482575;31;33426;-69
2023/07/30 05:17:10;;;;;;;5.25;1.87;;;;;;;26.29;49.31;99145.88;4488734;31;33690;-69
2023/07/30 05:19:38;;;;;;;3.80;1.75;;;;;;;26.32;49.35;99147.31;4484909;31;34941;-69
2023/07/30 05:22:07;;;;;;;2.95;1.70;;;;;;;26.31;49.71;99145.66;4483102;31;34331;-69
2023/07/30 05:24:36;;;;;;;3.92;1.45;;;;;;;26.40;49.52;99139.63;4459154;32;33656;-69
2023/07/30 05:27:04;;;;;;;3.67;1.48;;;;;;;26.42;49.10;99133.88;4449195;32;33791;-69
2023/07/30 05:29:33;;;;;;;3.35;1.85;;;;;;;26.45;49.43;99136.16;4453918;32;34424;-69
2023/07/30 05:32:01;;;;;;;8.90;2.15;;;;;;;26.53;49.15;99141.38;4452880;32;33024;-69
2023/07/30 05:34:28;;;;;;;5.15;2.17;;;;;;;26.58;49.05;99135.16;4447949;32;34606;-69
2023/07/30 05:36:56;;;;;;;3.85;1.83;;;;;;;26.59;49.11;99131.38;4449964;32;32368;-69
2023/07/30 05:39:23;;;;;;;4.47;2.15;;;;;;;26.59;49.26;99140.44;4462139;32;34748;-69
2023/07/30 05:41:51;;;;;;;5.65;1.40;;;;;;;26.57;49.25;99137.06;4464659;32;33850;-70
2023/07/30 05:44:18;;;;;;;5.43;1.90;;;;;;;26.63;49.21;99140.81;4454524;32;33714;-69
2023/07/30 05:46:46;;;;;;;8.18;1.83;;;;;;;26.64;49.10;99134.22;4456789;32;34079;-69
2023/07/30 05:49:14;;;;;;;2.80;1.40;;;;;;;26.66;49.29;99141.16;4451205;32;33530;-70
2023/07/30 05:51:42;;;;;;;3.22;1.67;;;;;;;26.66;49.37;99145.81;4446087;32;34359;-69
2023/07/30 05:54:10;;;;;;;3.62;1.67;;;;;;;26.65;49.45;99147.75;4455256;32;34520;-69
2023/07/30 05:56:37;;;;;;;4.10;1.50;;;;;;;26.66;49.70;99149.41;4459890;32;33649;-70
2023/07/30 05:59:05;;;;;;;3.20;1.70;;;;;;;26.60;49.64;99147.59;4448669;32;34822;-69
2023/07/30 06:01:32;;;;;;;3.30;1.50;;;;;;;26.41;49.76;99146.75;4452397;32;33567;-69
2023/07/30 06:04:00;;;;;;;3.05;1.77;;;;;;;26.41;49.76;99146.75;4452340;32;33705;-68
2023/07/30 06:06:29;;;;;;;3.97;1.85;;;;;;;26.47;49.66;99148.59;4448253;32;34799;-69
2023/07/30 06:08:56;;;;;;;1.75;1.10;;;;;;;26.51;49.45;99153.63;4452022;32;33861;-69
2023/07/30 06:11:24;;;;;;;13.13;2.40;;;;;;;26.65;49.10;99155.13;4454648;32;33125;-70
2023/07/30 06:13:52;;;;;;;3.60;1.77;;;;;;;26.59;49.24;99147.84;4454615;32;34717;-70
2023/07/30 06:16:20;;;;;;;3.22;1.77;;;;;;;26.71;49.37;99148.72;4448823;32;33676;-69
2023/07/30 06:18:48;;;;;;;4.37;1.73;;;;;;;26.56;49.68;99153.78;4450236;32;33622;-70
2023/07/30 06:21:15;;;;;;;3.40;1.60;;;;;;;25.78;51.66;99152.59;4426805;32;34661;-71
2023/07/30 06:23:43;;;;;;;2.20;1.30;;;;;;;26.53;50.20;99151.50;4431457;32;34606;-71
2023/07/30 06:26:11;;;;;;;4.65;2.12;;;;;;;26.56;50.23;99159.28;4465016;32;34855;-69
2023/07/30 06:28:38;;;;;;;4.55;2.28;;;;;;;26.63;49.99;99152.63;4456595;32;33940;-68
2023/07/30 06:31:06;;;;;;;3.25;1.70;;;;;;;26.78;49.74;99154.09;4459701;32;33360;-68
2023/07/30 06:33:34;;;;;;;3.12;1.52;;;;;;;26.81;49.88;99154.47;4456909;32;33605;-68
2023/07/30 06:36:01;;;;;;;4.30;1.87;;;;;;;26.25;50.96;99150.16;4461012;32;34857;-68
2023/07/30 06:38:29;;;;;;;4.00;2.08;;;;;;;26.61;50.30;99154.78;4459799;32;33525;-68
2023/07/30 06:40:57;;;;;;;3.20;1.60;;;;;;;26.85;49.68;99154.84;4460997;32;34511;-68
2023/07/30 06:43:25;;;;;;;3.80;2.03;;;;;;;26.98;49.29;99149.13;4458877;32;35382;-68
2023/07/30 06:45:53;;;;;;;5.18;1.95;;;;;;;26.61;50.30;99154.78;4458751;32;34291;-68
2023/07/30 06:48:21;;;;;;;4.40;2.05;;;;;;;26.92;49.50;99150.91;4453268;32;33939;-68
2023/07/30 06:50:49;;;;;;;3.42;1.98;;;;;;;27.13;49.14;99152.28;4458896;32;33289;-68
2023/07/30 06:53:16;;;;;;;5.35;1.77;;;;;;;27.07;49.46;99152.38;4471087;31;33460;-69
2023/07/30 06:55:44;;;;;;;3.72;1.85;;;;;;;26.98;49.76;99160.13;4482182;31;33724;-69
2023/07/30 06:58:11;;;;;;;3.70;1.65;;;;;;;26.71;50.03;99163.28;4486450;31;35327;-69
2023/07/30 07:00:39;;;;;;;5.18;1.95;;;;;;;26.61;50.61;99164.88;4473139;31;33238;-69
2023/07/30 07:03:07;;;;;;;3.47;1.77;;;;;;;26.59;51.44;99183.50;4476178;31;33835;-70
2023/07/30 07:05:34;;;;;;;2.85;1.52;;;;;;;26.12;52.60;99181.31;4480078;31;33920;-69
2023/07/30 07:08:02;;;;;;;3.28;1.73;;;;;;;26.01;53.25;99184.84;4478409;31;33267;-69
2023/07/30 07:10:30;;;;;;;3.67;2.03;;;;;;;26.09;53.67;99179.03;4480667;31;33040;-67
2023/07/30 07:12:57;;;;;;;5.40;1.95;;;;;;;25.86;54.72;99196.19;4481950;32;33921;-67
2023/07/30 07:15:25;;;;;;;4.32;2.25;;;;;;;26.05;54.61;99198.94;4481385;31;33943;-67
2023/07/30 07:17:53;;;;;;;4.22;2.05;;;;;;;26.20;53.79;99205.72;4476904;31;33459;-67
2023/07/30 07:20:21;;;;;;;4.35;2.45;;;;;;;26.15;54.60;99208.28;4479298;31;32028;-67
2023/07/30 07:22:48;;;;;;;5.35;2.15;;;;;;;26.12;55.06;99216.13;4477528;31;34954;-67
2023/07/30 07:25:19;;;;;;;4.12;2.03;;;;;;;26.01;56.06;99213.09;4475111;31;33896;-67
2023/07/30 07:27:46;;;;;;;4.18;2.50;;;;;;;26.20;55.30;99218.59;4473844;32;33588;-62
2023/07/30 07:30:14;;;;;;;3.72;2.45;;;;;;;26.01;55.20;99220.50;4473012;31;34313;-66
2023/07/30 07:32:42;;;;;;;5.40;2.35;;;;;;;25.66;56.62;99223.75;4473241;31;33810;-66
2023/07/30 07:35:10;;;;;;;5.43;1.90;;;;;;;25.85;55.78;99229.31;4474138;31;35725;-67
2023/07/30 07:37:37;;;;;;;4.00;2.10;;;;;;;25.74;55.98;99222.63;4480083;31;34963;-66
2023/07/30 07:40:08;;;;;;;3.28;1.58;;;;;;;25.75;56.04;99225.16;4483666;31;33940;-67
2023/07/30 07:42:36;;;;;;;5.32;2.22;;;;;;;25.64;56.05;99225.88;4473400;31;33505;-68
2023/07/30 07:45:04;;;;;;;3.72;2.00;;;;;;;25.47;56.38;99224.78;4455278;32;33896;-67
2023/07/30 07:47:32;;;;;;;5.47;1.75;;;;;;;25.65;55.80;99224.84;4463233;32;33583;-67
2023/07/30 07:49:59;;;;;;;3.03;1.90;;;;;;;25.61;56.32;99228.22;4433901;32;34047;-67
2023/07/30 07:52:27;;;;;;;4.57;2.53;;;;;;;25.38;56.99;99234.34;4378872;32;2111658;-67
2023/07/30 07:54:55;;;;;;;3.62;1.90;;;;;;;25.05;58.10;99236.22;4449498;32;33674;-67
2023/07/30 07:57:22;;;;;;;4.32;1.73;;;;;;;25.42;57.56;99243.78;4450624;32;33596;-67
2023/07/30 07:59:50;;;;;;;3.37;1.40;;;;;;;25.47;57.68;99238.47;4449789;32;34079;-67
2023/07/30 08:02:18;;;;;;;6.72;2.28;;;;;;;25.40;58.22;99244.00;4445278;32;33610;-66
2023/07/30 08:04:46;;;;;;;3.28;1.87;;;;;;;25.43;58.45;99240.84;4433523;32;33754;-66
2023/07/30 08:07:14;;;;;;;3.28;2.00;;;;;;;25.67;57.98;99238.28;4433741;32;33886;-67
2023/07/30 08:09:41;;;;;;;4.45;2.40;;;;;;;25.12;59.63;99246.31;4449055;32;33083;-66
2023/07/30 08:12:09;;;;;;;6.55;2.67;;;;;;;25.09;59.62;99255.78;4451765;32;34885;-66
2023/07/30 08:14:37;;;;;;;4.95;2.25;;;;;;;25.08;59.87;99257.69;4440123;32;33941;-66
2023/07/30 08:17:05;;;;;;;5.10;2.87;;;;;;;25.30;59.14;99251.91;4433778;32;33391;-66
2023/07/30 08:19:33;;;;;;;4.53;2.08;;;;;;;25.28;59.37;99254.00;4433422;32;33217;-67
2023/07/30 08:22:00;;;;;;;5.00;1.90;;;;;;;25.43;59.17;99257.28;4443735;32;33749;-66
2023/07/30 08:24:28;;;;;;;4.22;2.37;;;;;;;25.45;59.59;99254.28;4466435;31;34450;-66
2023/07/30 08:26:56;;;;;;;18.50;2.25;;;;;;;25.50;59.67;99251.72;4481092;32;33356;-66
2023/07/30 08:29:23;;;;;;;5.55;2.42;;;;;;;25.56;59.77;99254.41;4485201;31;33366;-67
2023/07/30 08:31:51;;;;;;;4.37;2.00;;;;;;;25.55;59.88;99255.50;4498345;31;33707;-67
2023/07/30 08:34:18;;;;;;;8.93;2.45;;;;;;;25.53;60.06;99245.81;4496486;31;34020;-67
2023/07/30 08:36:46;;;;;;;6.80;3.20;;;;;;;25.52;60.40;99246.84;4494250;31;33247;-66
2023/07/30 08:39:13;;;;;;;4.37;1.98;;;;;;;25.55;60.41;99249.13;4483087;31;34121;-66
2023/07/30 08:41:41;;;;;;;4.12;2.15;;;;;;;25.55;60.63;99239.03;4471935;32;34636;-66
2023/07/30 08:44:09;;;;;;;5.07;2.58;;;;;;;25.59;60.71;99236.69;4482180;32;34668;-67
2023/07/30 08:46:37;;;;;;;6.97;3.33;;;;;;;25.16;62.55;99240.19;4480907;32;34376;-66
2023/07/30 08:49:05;;;;;;;8.07;2.92;;;;;;;25.52;61.76;99235.88;4478579;31;32991;-67
2023/07/30 08:51:34;;;;;;;5.75;3.03;;;;;;;25.31;63.10;99245.34;4485658;31;35066;-66
2023/07/30 08:54:02;;;;;;;4.75;2.67;;;;;;;25.48;62.62;99242.88;4475619;31;33829;-66
2023/07/30 08:56:31;;;;;;;4.72;2.30;;;;;;;25.59;62.32;99242.19;4467775;32;34535;-66
2023/07/30 08:58:59;;;;;;;6.87;2.58;;;;;;;25.68;61.95;99231.75;4484346;31;33108;-66
2023/07/30 09:01:33;;;;;;;8.43;2.90;;;;;;;25.69;61.53;99234.28;4483732;31;35143;-66
2023/07/30 09:04:02;;;;;;;7.40;2.75;;;;;;;25.72;61.34;99238.47;4483965;32;33884;-66
2023/07/30 09:06:30;;;;;;;4.50;2.42;;;;;;;25.71;61.21;99239.50;4483989;32;34517;-66
2023/07/30 09:08:58;;;;;;;7.18;2.72;;;;;;;25.72;61.26;99242.06;4482692;31;33093;-66
2023/07/30 09:11:27;;;;;;;4.00;2.53;;;;;;;25.75;61.23;99233.38;4475109;31;34611;-66
2023/07/30 09:13:57;;;;;;;4.12;2.33;;;;;;;25.72;61.57;99233.81;4468905;32;34001;-66
2023/07/30 09:16:26;;;;;;;4.90;2.12;;;;;;;25.84;61.61;99249.53;4494919;31;34868;-66
2023/07/30 09:18:54;;;;;;;4.75;2.30;;;;;;;25.86;61.72;99242.78;4490313;31;34215;-66
2023/07/30 09:21:32;;;;;;;3.92;2.03;;;;;;;25.87;60.54;99249.09;4483079;31;35241;-66
2023/07/30 09:24:06;;;;;;;5.18;2.22;;;;;;;25.80;61.02;99249.13;4480310;31;33884;-66
2023/07/30 09:26:45;;;;;;;11.48;2.22;;;;;;;25.82;61.11;99247.03;4477275;31;34045;-69
2023/07/30 09:29:13;;;;;;;4.07;1.80;;;;;;;25.83;61.19;99240.50;4481665;31;33038;-67
2023/07/30 09:31:54;;;;;;;3.90;2.08;;;;;;;25.88;61.34;99237.09;4483897;31;34492;-67
2023/07/30 09:34:24;;;;;;;4.78;2.42;;;;;;;25.88;60.81;99243.41;4489232;31;35388;-68
2023/07/30 09:36:55;;;;;;;4.57;2.33;;;;;;;25.84;60.37;99241.31;4486501;31;35465;-68
2023/07/30 09:39:25;;;;;;;4.43;2.28;;;;;;;25.85;60.71;99240.28;4483632;32;33041;-67
2023/07/30 09:42:00;;;;;;;3.87;2.22;;;;;;;25.75;61.15;99244.34;4469099;32;33920;-67
2023/07/30 09:44:28;;;;;;;5.25;2.78;;;;;;;25.91;60.57;99240.22;4476712;31;35390;-67
2023/07/30 09:46:55;;;;;;;7.32;2.30;;;;;;;25.94;60.95;99238.87;4486136;31;34908;-67
2023/07/30 09:49:23;;;;;;;5.28;2.40;;;;;;;26.01;60.97;99237.78;4494251;31;32899;-67
2023/07/30 09:51:53;;;;;;;5.85;2.40;;;;;;;25.90;60.93;99234.94;4499026;31;33596;-67
2023/07/30 09:54:22;;;;;;;4.53;2.47;;;;;;;26.05;60.21;99240.06;4490530;31;33763;-68
2023/07/30 09:56:49;;;;;;;4.80;2.90;;;;;;;26.05;60.47;99237.31;4473213;31;33988;-67
2023/07/30 09:59:17;;;;;;;4.75;2.70;;;;;;;26.00;60.45;99244.34;4478031;31;33188;-67
2023/07/30 10:01:49;;;;;;;6.78;2.87;;;;;;;25.99;60.54;99239.06;4480614;31;33623;-66
2023/07/30 10:04:20;;;;;;;7.28;3.40;;;;;;;25.60;61.92;99234.78;4479768;31;35013;-66
2023/07/30 10:06:56;;;;;;;6.62;3.40;;;;;;;25.69;62.00;99238.91;4491014;31;33741;-67
2023/07/30 10:09:27;;;;;;;9.07;3.65;;;;;;;25.82;61.65;99238.81;4490913;31;34171;-67
2023/07/30 10:11:54;;;;;;;5.68;2.97;;;;;;;25.76;62.04;99247.91;4474698;31;34111;-67
2023/07/30 10:14:23;;;;;;;4.62;2.87;;;;;;;25.82;62.29;99243.47;4450451;32;33913;-66
2023/07/30 10:16:57;;;;;;;4.78;2.65;;;;;;;25.74;61.67;99244.53;4452829;32;33506;-68
2023/07/30 10:19:25;;;;;;;5.05;2.87;;;;;;;25.86;61.27;99247.44;4448540;32;33245;-67
2023/07/30 10:22:21;;;;;;;4.07;2.45;;;;;;;25.79;61.62;99242.81;4453876;32;33617;-66
2023/07/30 10:25:03;;;;;;;4.90;2.10;;;;;;;25.97;61.11;99242.06;4454195;32;34021;-67
2023/07/30 10:27:40;;;;;;;3.65;2.05;;;;;;;26.04;60.94;99236.50;4438511;32;34423;-67
2023/07/30 10:30:15;;;;;;;4.30;2.12;;;;;;;25.84;60.51;99238.59;4452283;32;33245;-66
2023/07/30 10:33:09;;;;;;;4.62;2.67;;;;;;;26.00;59.99;99238.00;4446870;32;34781;-65
2023/07/30 10:35:40;;;;;;;4.07;2.15;;;;;;;25.85;60.37;99232.88;4436446;32;34046;-67
2023/07/30 10:38:29;;;;;;;4.85;1.73;;;;;;;26.10;59.20;99224.63;4436565;32;34256;-66
2023/07/30 10:41:03;;;;;;;4.60;2.37;;;;;;;25.99;59.34;99222.63;4435964;32;32931;-66
2023/07/30 10:43:34;;;;;;;4.85;2.22;;;;;;;25.98;59.54;99229.16;4447172;32;34507;-65
2023/07/30 10:46:01;;;;;;;5.60;2.40;;;;;;;26.22;58.56;99228.25;4469295;31;33658;-66
2023/07/30 10:48:36;;;;;;;4.47;2.10;;;;;;;26.16;58.66;99220.09;4478231;31;34622;-65
2023/07/30 10:51:09;;;;;;;6.32;2.45;;;;;;;26.23;58.93;99224.47;4476886;31;33896;-65
2023/07/30 10:53:37;;;;;;;5.07;2.67;;;;;;;26.32;59.03;99222.22;4476295;31;33459;-65
2023/07/30 10:56:06;;;;;;;4.68;2.17;;;;;;;26.25;59.66;99229.69;4490656;31;33453;-66
2023/07/30 10:58:34;;;;;;;3.50;2.33;;;;;;;26.13;59.36;99229.66;4480354;31;33598;-66
2023/07/30 11:01:04;;;;;;;7.80;2.62;;;;;;;26.08;59.00;99231.37;4485105;31;33314;-66
2023/07/30 11:03:32;;;;;;;9.20;2.45;;;;;;;25.95;59.72;99227.72;4485435;31;35038;-67
2023/07/30 11:06:01;;;;;;;4.72;2.50;;;;;;;26.20;59.29;99229.56;4475702;31;34190;-67
2023/07/30 11:08:38;;;;;;;6.57;3.53;;;;;;;26.31;58.98;99227.94;4488112;31;33700;-67
2023/07/30 11:11:08;;;;;;;4.90;2.53;;;;;;;26.27;58.88;99233.06;4480595;31;34675;-69
2023/07/30 11:13:41;;;;;;;5.10;2.78;;;;;;;25.94;59.95;99220.56;4470819;31;34477;-67
2023/07/30 11:16:10;;;;;;;4.45;2.53;;;;;;;25.85;61.05;99227.41;4472244;31;33897;-69
2023/07/30 11:18:38;;;;;;;4.55;2.60;;;;;;;26.04;60.01;99233.75;4476367;31;33465;-67
2023/07/30 11:21:07;;;;;;;4.62;2.83;;;;;;;26.15;59.32;99234.88;4487216;31;33237;-67
2023/07/30 11:23:36;;;;;;;5.15;2.62;;;;;;;26.13;59.97;99240.63;4479599;31;34012;-67
2023/07/30 11:26:05;;;;;;;5.32;2.42;;;;;;;25.82;60.93;99233.34;4479051;31;33827;-68
2023/07/30 11:28:35;;;;;;;4.70;2.60;;;;;;;25.59;61.02;99225.72;4483007;32;33887;-67
2023/07/30 11:31:10;;;;;;;3.25;1.73;;;;;;;26.08;60.39;99226.72;4482359;32;33137;-67
2023/07/30 11:33:42;;;;;;;5.18;2.78;;;;;;;25.84;61.53;99236.69;4481731;31;33637;-67
2023/07/30 11:36:12;;;;;;;2.95;1.67;;;;;;;25.83;61.29;99235.00;4434649;32;34874;-67
2023/07/30 11:38:40;;;;;;;4.47;1.98;;;;;;;25.76;61.35;99234.22;4432302;32;33565;-66
2023/07/30 11:41:10;;;;;;;3.75;1.87;;;;;;;25.95;60.51;99241.44;4424010;32;33304;-67